Lulu Pass Weather Station

This weather station is located at 10020ft near Lulu Pass at the head of Fisher Creek. This data can be used with temperature and precipitation data from the Fisher Creek SNOTEL site. This data can be viewed directly on datagarrison.com

Elevation
10020ft
Jump to table bottom
Date Time Temperature
deg F
RH, % Wind Speed Wind Gust Wind Direction
03/01/24 03:00 20.4 97 22 58 SW - 239
03/01/24 02:00 20.5 97 20 59 SW - 240
03/01/24 01:00 20.8 97 22 49 SW - 205
03/01/24 00:00 20.6 97 26 61 SW - 212
02/29/24 23:00 20.2 97 27 51 SW - 208
02/29/24 22:00 20.4 97 26 51 S - 202
02/29/24 21:00 21.5 97 24 46 S - 199
02/29/24 20:00 21.7 97 20 41 S - 202
02/29/24 19:00 21.2 97 21 46 SW - 205
02/29/24 18:00 21.2 97 18 36 SW - 208
02/29/24 17:00 21.0 97 13 31 SW - 216
02/29/24 16:00 20.3 96 15 40 SW - 223
02/29/24 15:00 20.4 96 21 48 SW - 209
02/29/24 14:00 20.3 96 20 37 SW - 209
02/29/24 13:00 19.6 95 20 38 SW - 218
02/29/24 12:00 19.1 94 21 37 SW - 223
02/29/24 11:00 17.7 94 24 41 SW - 218
02/29/24 10:00 16.5 95 8 26 SW - 240
02/29/24 09:00 15.3 95 11 31 SW - 220
02/29/24 08:00 15.1 95 19 36 SW - 205
02/29/24 07:00 14.1 95 11 22 SW - 208
02/29/24 06:00 14.3 94 10 24 SW - 234
02/29/24 05:00 14.9 95 14 37 SW - 225
02/29/24 04:00 14.6 95 6 24 SW - 246
02/29/24 03:00 13.6 94 10 27 SW - 230
02/29/24 02:00 13.0 94 11 26 SW - 234
02/29/24 01:00 12.3 94 11 23 SW - 212
02/29/24 00:00 11.4 93 16 26 SW - 209
02/28/24 23:00 11.4 93 12 25 SW - 211
02/28/24 22:00 11.0 93 9 20 S - 192
02/28/24 21:00 10.6 93 8 18 SW - 208
02/28/24 20:00 10.0 93 6 17 SW - 229
02/28/24 19:00 9.8 93 6 19 SW - 244
02/28/24 18:00 10.0 93 7 15 W - 248
02/28/24 17:00 11.6 93 11 20 NW - 293
02/28/24 16:00 11.9 93 8 19 W - 263
02/28/24 15:00 11.7 93 8 17 W - 270
02/28/24 14:00 11.6 93 11 24 W - 289
02/28/24 13:00 10.7 92 10 24 W - 281
02/28/24 12:00 9.4 92 13 31 W - 272
02/28/24 11:00 8.2 91 11 24 W - 261
02/28/24 10:00 6.5 91 10 28 W - 261
02/28/24 09:00 5.1 91 13 28 W - 261
02/28/24 08:00 3.9 91 15 32 SW - 244
02/28/24 07:00 2.8 90 13 31 W - 254
02/28/24 06:00 1.5 90 10 24 SW - 243
02/28/24 05:00 1.2 90 10 24 W - 284
02/28/24 04:00 0.5 90 10 31 W - 253
02/28/24 03:00 -0.4 89 13 34 W - 260
02/28/24 02:00 -0.9 89 15 37 W - 251